createdAt,value
2023-04-14T00:01:39.133Z,7.71
2023-04-14T00:04:06.474Z,7.65
2023-04-14T00:06:33.405Z,7.60
2023-04-14T00:09:00.323Z,7.55
2023-04-14T00:11:27.454Z,7.56
2023-04-14T00:13:56.083Z,7.54
2023-04-14T00:16:22.912Z,7.55
2023-04-14T00:18:49.673Z,7.52
2023-04-14T00:21:16.427Z,7.46
2023-04-14T00:23:43.211Z,7.40
2023-04-14T00:26:10.431Z,7.36
2023-04-14T00:28:39.947Z,7.32
2023-04-14T00:31:07.225Z,7.25
2023-04-14T00:33:33.885Z,7.24
2023-04-14T00:36:01.721Z,7.25
2023-04-14T00:38:29.313Z,7.24
2023-04-14T00:40:59.308Z,7.30
2023-04-14T00:43:26.127Z,7.28
2023-04-14T00:45:53.030Z,7.24
2023-04-14T00:48:20.439Z,7.23
2023-04-14T00:50:47.892Z,7.22
2023-04-14T00:53:14.924Z,7.23
2023-04-14T00:55:41.965Z,7.21
2023-04-14T00:58:09.107Z,7.17
2023-04-14T01:00:36.351Z,7.19
2023-04-14T01:03:03.658Z,7.18
2023-04-14T01:05:30.732Z,7.14
2023-04-14T01:07:59.989Z,7.13
2023-04-14T01:10:31.196Z,7.11
2023-04-14T01:13:08.955Z,7.13
2023-04-14T01:15:47.984Z,7.15
2023-04-14T01:18:36.665Z,7.12
2023-04-14T01:21:11.461Z,7.14
2023-04-14T01:23:51.735Z,7.11
2023-04-14T01:26:19.653Z,7.08
2023-04-14T01:29:03.437Z,7.10
2023-04-14T01:31:48.747Z,7.07
2023-04-14T01:34:38.759Z,7.03
2023-04-14T01:37:08.981Z,7.04
2023-04-14T01:39:39.210Z,7.02
2023-04-14T01:42:09.458Z,6.98
2023-04-14T01:44:37.653Z,6.96
2023-04-14T01:47:08.495Z,6.95
2023-04-14T01:49:38.728Z,6.92
2023-04-14T01:52:08.865Z,6.88
2023-04-14T01:54:37.669Z,6.84
2023-04-14T01:57:05.207Z,6.77
2023-04-14T01:59:34.019Z,6.81
2023-04-14T02:02:02.987Z,6.88
2023-04-14T02:04:31.291Z,6.88
2023-04-14T02:06:59.955Z,6.91
2023-04-14T02:09:27.192Z,6.93
2023-04-14T02:11:55.064Z,6.90
2023-04-14T02:14:22.787Z,6.92
2023-04-14T02:16:51.837Z,6.90
2023-04-14T02:19:21.188Z,6.91
2023-04-14T02:21:49.869Z,6.87
2023-04-14T02:24:17.081Z,6.89
2023-04-14T02:26:51.411Z,6.86
2023-04-14T02:29:20.419Z,6.88
2023-04-14T02:34:29.029Z,6.91
2023-04-14T02:36:57.704Z,6.94
2023-04-14T02:39:37.418Z,6.93
2023-04-14T02:42:11.140Z,6.88
2023-04-14T02:44:44.185Z,6.82
2023-04-14T02:47:12.001Z,6.80
2023-04-14T02:49:44.722Z,6.77
2023-04-14T02:52:14.581Z,6.72
2023-04-14T02:54:43.070Z,6.68
2023-04-14T02:57:11.085Z,6.65
2023-04-14T02:59:42.587Z,6.60
2023-04-14T03:02:11.450Z,6.58
2023-04-14T03:04:42.128Z,6.60
2023-04-14T03:07:17.843Z,6.56
2023-04-14T03:09:45.499Z,6.52
2023-04-14T03:12:14.061Z,6.44
2023-04-14T03:14:42.479Z,6.37
2023-04-14T03:17:09.799Z,6.36
2023-04-14T03:19:39.912Z,6.32
2023-04-14T03:22:09.108Z,6.24
2023-04-14T03:24:36.817Z,6.25
2023-04-14T03:27:07.158Z,6.19
2023-04-14T03:29:41.203Z,6.20
2023-04-14T03:32:09.460Z,6.15
2023-04-14T03:34:41.597Z,6.11
2023-04-14T03:37:09.356Z,6.11
2023-04-14T03:39:39.159Z,6.09
2023-04-14T03:42:08.505Z,6.08
2023-04-14T03:44:36.796Z,6.05
2023-04-14T03:47:08.196Z,6.04
2023-04-14T03:49:38.101Z,5.96
2023-04-14T03:52:07.977Z,5.89
2023-04-14T03:54:36.806Z,5.87
2023-04-14T03:57:06.399Z,5.84
2023-04-14T03:59:35.488Z,5.87
2023-04-14T04:02:03.267Z,5.92
2023-04-14T04:04:31.362Z,5.92
2023-04-14T04:06:59.148Z,5.86
2023-04-14T04:09:27.456Z,5.85
2023-04-14T04:11:58.184Z,5.84
2023-04-14T04:14:25.641Z,5.82
2023-04-14T04:16:55.224Z,5.79
2023-04-14T04:19:23.394Z,5.75
2023-04-14T04:21:53.199Z,5.69
2023-04-14T04:24:22.611Z,5.64
2023-04-14T04:26:49.967Z,5.62
2023-04-14T04:29:16.734Z,5.60
2023-04-14T04:31:43.656Z,5.55
2023-04-14T04:34:11.272Z,5.50
2023-04-14T04:36:40.408Z,5.49
2023-04-14T04:39:07.343Z,5.46
2023-04-14T04:41:38.608Z,5.49
2023-04-14T04:44:05.971Z,5.53
2023-04-14T04:46:46.942Z,5.51
2023-04-14T04:49:15.484Z,5.52
2023-04-14T04:51:43.520Z,5.56
2023-04-14T04:54:10.268Z,5.58
2023-04-14T04:56:37.151Z,5.55
2023-04-14T04:59:04.260Z,5.55
2023-04-14T05:01:31.328Z,5.50
2023-04-14T05:03:58.210Z,5.53
2023-04-14T05:06:24.986Z,5.40
2023-04-14T05:08:52.638Z,5.40
2023-04-14T05:11:19.377Z,5.42
2023-04-14T05:13:46.291Z,5.42
2023-04-14T05:16:17.430Z,5.50
2023-04-14T05:18:44.522Z,5.49
2023-04-14T05:21:15.136Z,5.51
2023-04-14T05:23:43.834Z,5.58
2023-04-14T05:28:42.778Z,5.59
2023-04-14T05:31:09.551Z,5.60
2023-04-14T05:33:36.451Z,5.61
2023-04-14T05:36:03.304Z,5.63
2023-04-14T05:38:30.065Z,5.70
2023-04-14T05:40:56.796Z,5.77
2023-04-14T05:43:23.531Z,5.83
2023-04-14T05:45:50.266Z,5.90
2023-04-14T05:48:17.792Z,5.98
2023-04-14T05:50:44.796Z,6.05
2023-04-14T05:53:12.198Z,6.11
2023-04-14T05:55:41.738Z,6.16
2023-04-14T05:58:08.460Z,6.23
2023-04-14T06:00:35.145Z,6.29
2023-04-14T06:03:02.074Z,6.35
2023-04-14T06:05:29.005Z,6.41
2023-04-14T06:07:56.028Z,6.44
2023-04-14T06:10:23.251Z,6.41
2023-04-14T06:12:50.019Z,6.49
2023-04-14T06:15:16.745Z,6.52
2023-04-14T06:17:44.182Z,6.59
2023-04-14T06:20:11.413Z,6.63
2023-04-14T06:22:38.216Z,6.68
2023-04-14T06:25:05.278Z,6.74
2023-04-14T06:27:32.055Z,6.81
2023-04-14T06:30:00.265Z,6.89
2023-04-14T06:32:27.084Z,6.93
2023-04-14T06:34:53.881Z,7.00
2023-04-14T06:37:23.342Z,6.99
2023-04-14T06:39:50.031Z,7.06
2023-04-14T06:42:16.802Z,7.07
2023-04-14T06:44:43.646Z,7.07
2023-04-14T06:47:10.435Z,7.07
2023-04-14T06:49:37.342Z,7.07
2023-04-14T06:52:05.853Z,7.17
2023-04-14T06:54:32.598Z,7.24
2023-04-14T06:57:00.092Z,7.35
2023-04-14T06:59:29.422Z,7.45
2023-04-14T07:01:56.780Z,7.66
2023-04-14T07:04:23.681Z,7.92
2023-04-14T07:06:50.536Z,8.09
2023-04-14T07:09:17.257Z,8.08
2023-04-14T07:11:45.667Z,8.15
2023-04-14T07:14:12.563Z,8.27
2023-04-14T07:16:39.335Z,8.29
2023-04-14T07:19:06.110Z,8.28
2023-04-14T07:21:32.849Z,8.21
2023-04-14T07:23:59.701Z,8.05
2023-04-14T07:26:26.814Z,8.08
2023-04-14T07:28:53.547Z,8.14
2023-04-14T07:31:23.748Z,8.18
2023-04-14T07:33:50.561Z,8.15
2023-04-14T07:36:17.326Z,8.07
2023-04-14T07:38:44.126Z,8.15
2023-04-14T07:41:10.833Z,8.10
2023-04-14T07:43:37.649Z,8.23
2023-04-14T07:46:05.743Z,8.37
2023-04-14T07:48:37.322Z,8.54
2023-04-14T07:51:07.224Z,8.43
2023-04-14T07:53:34.268Z,8.48
2023-04-14T07:56:00.975Z,8.52
2023-04-14T07:58:30.020Z,8.51
2023-04-14T08:00:57.004Z,8.61
2023-04-14T08:03:24.308Z,8.73
2023-04-14T08:05:51.745Z,8.74
2023-04-14T08:08:18.448Z,8.96
2023-04-14T08:10:45.165Z,9.17
2023-04-14T08:13:11.900Z,9.58
2023-04-14T08:15:39.049Z,9.81
2023-04-14T08:18:06.159Z,9.92
2023-04-14T08:20:33.208Z,9.97
2023-04-14T08:23:00.008Z,10.13
2023-04-14T08:25:26.815Z,10.22
2023-04-14T08:27:53.555Z,10.42
2023-04-14T08:30:20.373Z,10.57
2023-04-14T08:32:47.118Z,10.65
2023-04-14T08:35:35.986Z,10.50
2023-04-14T08:38:02.484Z,10.18
2023-04-14T08:40:36.503Z,10.14
2023-04-14T08:43:03.392Z,10.01
2023-04-14T08:45:31.539Z,10.15
2023-04-14T08:47:59.830Z,10.17
2023-04-14T08:50:28.871Z,10.06
2023-04-14T08:52:57.287Z,10.11
2023-04-14T08:55:26.243Z,10.03
2023-04-14T08:57:54.284Z,10.36
2023-04-14T09:00:23.686Z,10.57
2023-04-14T09:02:51.062Z,10.57
2023-04-14T09:05:20.931Z,10.68
2023-04-14T09:07:47.665Z,10.88
2023-04-14T09:10:14.605Z,11.15
2023-04-14T09:12:42.134Z,11.22
2023-04-14T09:15:09.716Z,10.86
2023-04-14T09:17:36.931Z,10.96
2023-04-14T09:20:37.370Z,11.30
2023-04-14T09:22:53.107Z,11.45
2023-04-14T09:25:21.319Z,11.63
2023-04-14T09:27:49.545Z,11.82
2023-04-14T09:30:17.951Z,11.56
2023-04-14T09:32:45.420Z,11.36
2023-04-14T09:35:14.974Z,11.51
2023-04-14T09:37:45.436Z,11.37
2023-04-14T09:40:32.582Z,11.21
2023-04-14T09:42:59.594Z,11.35
2023-04-14T09:45:45.095Z,11.79
2023-04-14T09:48:22.447Z,12.02
2023-04-14T09:51:10.139Z,11.93
2023-04-14T09:53:38.042Z,11.99
2023-04-14T09:56:06.578Z,11.80
2023-04-14T09:58:37.618Z,11.78
2023-04-14T10:01:06.042Z,11.78
2023-04-14T10:03:38.304Z,11.89
2023-04-14T10:06:14.401Z,11.99
2023-04-14T10:08:43.274Z,12.32
2023-04-14T10:11:21.277Z,12.88
2023-04-14T10:13:50.562Z,13.07
2023-04-14T10:16:17.775Z,12.68
2023-04-14T10:18:44.720Z,12.63
2023-04-14T10:21:11.848Z,12.30
2023-04-14T10:23:39.908Z,11.97
2023-04-14T10:26:07.836Z,11.80
2023-04-14T10:28:36.270Z,12.23
2023-04-14T10:31:05.185Z,12.80
2023-04-14T10:33:32.040Z,12.70
2023-04-14T10:36:01.449Z,12.39
2023-04-14T10:38:39.850Z,12.39
2023-04-14T10:41:07.979Z,12.29
2023-04-14T10:43:38.827Z,12.58
2023-04-14T10:46:10.172Z,13.23
2023-04-14T10:48:41.733Z,13.52
2023-04-14T10:51:10.828Z,13.33
2023-04-14T10:53:50.284Z,13.02
2023-04-14T10:56:21.666Z,12.88
2023-04-14T10:58:56.476Z,12.70
2023-04-14T11:01:31.539Z,12.57
2023-04-14T11:04:13.149Z,12.49
2023-04-14T11:06:46.908Z,12.93
2023-04-14T11:09:33.636Z,13.07
2023-04-14T11:12:28.132Z,14.31
2023-04-14T11:14:57.056Z,15.27
2023-04-14T11:17:24.090Z,15.90
2023-04-14T11:19:55.397Z,15.91
2023-04-14T11:22:41.729Z,15.79
2023-04-14T11:25:11.956Z,15.39
2023-04-14T11:27:39.655Z,14.92
2023-04-14T11:30:07.791Z,14.12
2023-04-14T11:32:52.230Z,13.72
2023-04-14T11:35:20.054Z,13.66
2023-04-14T11:37:47.319Z,13.49
2023-04-14T11:40:15.731Z,13.43
2023-04-14T11:42:49.221Z,13.28
2023-04-14T11:45:15.929Z,13.78
2023-04-14T11:47:58.665Z,15.12
2023-04-14T11:50:26.509Z,16.10
2023-04-14T11:52:55.530Z,16.36
2023-04-14T11:55:23.526Z,15.63
2023-04-14T11:57:50.283Z,14.97
2023-04-14T12:00:17.536Z,14.21
2023-04-14T12:02:45.508Z,13.87
2023-04-14T12:05:14.214Z,13.46
2023-04-14T12:07:46.228Z,13.18
2023-04-14T12:10:13.540Z,12.91
2023-04-14T12:12:40.240Z,12.80
2023-04-14T12:15:07.976Z,13.16
2023-04-14T12:17:34.740Z,14.38
2023-04-14T12:20:01.436Z,15.37
2023-04-14T12:22:29.918Z,16.05
2023-04-14T12:24:57.147Z,16.21
2023-04-14T12:27:24.959Z,16.15
2023-04-14T12:29:52.501Z,16.47
2023-04-14T12:32:19.334Z,16.40
2023-04-14T12:34:58.781Z,16.53
2023-04-14T12:37:29.024Z,16.29
2023-04-14T12:39:58.721Z,16.41
2023-04-14T12:42:26.841Z,16.80
2023-04-14T12:45:00.906Z,17.07
2023-04-14T12:47:34.538Z,17.47
2023-04-14T12:50:22.140Z,17.20
2023-04-14T12:52:48.868Z,17.03
2023-04-14T12:55:29.853Z,16.78
2023-04-14T12:58:00.380Z,16.78
2023-04-14T13:00:28.424Z,17.28
2023-04-14T13:02:56.227Z,17.85
2023-04-14T13:05:23.396Z,18.26
2023-04-14T13:07:50.590Z,18.62
2023-04-14T13:10:17.387Z,18.19
2023-04-14T13:12:44.099Z,18.35
2023-04-14T13:15:28.000Z,18.18
2023-04-14T13:17:58.628Z,17.63
2023-04-14T13:20:25.642Z,17.72
2023-04-14T13:22:52.596Z,17.74
2023-04-14T13:25:19.354Z,17.58
2023-04-14T13:27:48.907Z,17.35
2023-04-14T13:30:15.715Z,17.46
2023-04-14T13:32:45.404Z,18.02
2023-04-14T13:35:12.620Z,17.68
2023-04-14T13:37:39.464Z,17.46
2023-04-14T13:40:07.038Z,17.09
2023-04-14T13:42:33.753Z,16.71
2023-04-14T13:45:00.492Z,16.98
2023-04-14T13:47:28.410Z,17.31
2023-04-14T13:49:55.139Z,17.06
2023-04-14T13:52:21.820Z,16.86
2023-04-14T13:54:48.651Z,16.83
2023-04-14T13:57:15.709Z,16.46
2023-04-14T13:59:42.607Z,16.08
2023-04-14T14:02:09.361Z,15.96
2023-04-14T14:04:37.086Z,15.86
2023-04-14T14:07:04.029Z,15.64
2023-04-14T14:09:30.890Z,15.95
2023-04-14T14:11:57.698Z,15.80
2023-04-14T14:14:24.387Z,15.70
2023-04-14T14:16:51.177Z,15.75
2023-04-14T14:19:18.306Z,15.81
2023-04-14T14:21:45.019Z,15.89
2023-04-14T14:24:12.625Z,16.00
2023-04-14T14:26:39.375Z,16.09
2023-04-14T14:29:06.141Z,16.14
2023-04-14T14:31:33.090Z,16.02
2023-04-14T14:34:00.204Z,16.00
2023-04-14T14:36:27.761Z,16.04
2023-04-14T14:38:54.433Z,15.68
2023-04-14T14:41:21.162Z,15.64
2023-04-14T14:43:49.848Z,15.83
2023-04-14T14:46:17.049Z,15.88
2023-04-14T14:48:43.876Z,15.78
2023-04-14T14:51:10.779Z,15.88
2023-04-14T14:53:37.477Z,15.93
2023-04-14T14:56:04.741Z,15.69
2023-04-14T14:58:31.544Z,15.84
2023-04-14T15:00:58.278Z,15.62
2023-04-14T15:03:25.158Z,15.38
2023-04-14T15:05:53.053Z,14.88
2023-04-14T15:08:20.164Z,14.78
2023-04-14T15:10:46.923Z,14.70
2023-04-14T15:13:13.714Z,14.64
2023-04-14T15:15:40.431Z,14.65
2023-04-14T15:18:07.463Z,14.84
2023-04-14T15:20:34.168Z,14.80
2023-04-14T15:23:00.884Z,14.81
2023-04-14T15:25:27.608Z,14.90
2023-04-14T15:27:55.483Z,14.89
2023-04-14T15:30:24.012Z,14.87
2023-04-14T15:32:51.293Z,14.84
2023-04-14T15:35:18.173Z,14.93
2023-04-14T15:37:44.867Z,14.92
2023-04-14T15:40:11.684Z,14.83
2023-04-14T15:42:38.454Z,14.76
2023-04-14T15:45:05.522Z,14.77
2023-04-14T15:47:32.278Z,14.71
2023-04-14T15:50:09.333Z,14.70
2023-04-14T15:52:41.038Z,14.63
2023-04-14T15:55:09.037Z,14.70
2023-04-14T15:57:36.391Z,14.65
2023-04-14T16:00:07.393Z,14.63
2023-04-14T16:02:42.088Z,14.63
2023-04-14T16:05:09.142Z,14.64
2023-04-14T16:07:36.081Z,14.70
2023-04-14T16:10:04.412Z,14.69
2023-04-14T16:12:33.647Z,14.61
2023-04-14T16:15:00.337Z,14.58
2023-04-14T16:17:27.106Z,14.61
2023-04-14T16:19:53.918Z,14.62
2023-04-14T16:22:20.635Z,14.48
2023-04-14T16:24:47.399Z,14.56
2023-04-14T16:27:14.191Z,14.57
2023-04-14T16:29:41.775Z,14.54
2023-04-14T16:32:08.577Z,14.46
2023-04-14T16:34:35.616Z,14.48
2023-04-14T16:37:02.299Z,14.38
2023-04-14T16:39:30.457Z,14.42
2023-04-14T16:41:57.805Z,14.41
2023-04-14T16:44:24.647Z,14.34
2023-04-14T16:46:51.745Z,14.27
2023-04-14T16:49:18.521Z,14.30
2023-04-14T16:51:46.266Z,14.36
2023-04-14T16:54:12.970Z,14.29
2023-04-14T16:56:39.688Z,14.32
2023-04-14T16:59:07.331Z,14.30
2023-04-14T17:01:34.107Z,14.22
2023-04-14T17:04:01.123Z,14.15
2023-04-14T17:06:28.146Z,14.15
2023-04-14T17:08:54.867Z,14.20
2023-04-14T17:11:21.726Z,14.21
2023-04-14T17:13:48.773Z,14.08
2023-04-14T17:16:15.839Z,13.98
2023-04-14T17:18:42.989Z,13.76
2023-04-14T17:21:09.707Z,13.71
2023-04-14T17:23:37.561Z,13.58
2023-04-14T17:26:04.583Z,13.47
2023-04-14T17:28:32.966Z,13.37
2023-04-14T17:31:00.112Z,13.23
2023-04-14T17:33:27.582Z,13.20
2023-04-14T17:35:55.064Z,13.07
2023-04-14T17:38:21.823Z,12.94
2023-04-14T17:40:48.868Z,12.79
2023-04-14T17:43:15.981Z,12.69
2023-04-14T17:45:44.221Z,12.56
2023-04-14T17:48:11.158Z,12.46
2023-04-14T17:50:38.353Z,12.38
2023-04-14T17:53:05.117Z,12.33
2023-04-14T17:55:31.954Z,12.24
2023-04-14T17:57:58.857Z,12.21
2023-04-14T18:00:27.646Z,12.10
2023-04-14T18:02:54.425Z,12.14
2023-04-14T18:05:21.201Z,12.10
2023-04-14T18:07:47.950Z,11.99
2023-04-14T18:10:14.680Z,11.89
2023-04-14T18:12:41.377Z,11.86
2023-04-14T18:15:08.589Z,11.77
2023-04-14T18:17:36.643Z,11.71
2023-04-14T18:20:04.550Z,11.63
2023-04-14T18:22:31.726Z,11.59
2023-04-14T18:24:58.422Z,11.55
2023-04-14T18:29:54.866Z,11.49
2023-04-14T18:32:22.453Z,11.40
2023-04-14T18:34:49.397Z,11.40
2023-04-14T18:37:16.100Z,11.35
2023-04-14T18:39:42.949Z,11.30
2023-04-14T18:42:10.346Z,11.25
2023-04-14T18:44:37.063Z,11.16
2023-04-14T18:47:04.005Z,11.13
2023-04-14T18:49:30.774Z,11.02
2023-04-14T18:51:58.037Z,10.99
2023-04-14T18:54:24.951Z,10.95
2023-04-14T18:56:51.921Z,10.91
2023-04-14T18:59:18.853Z,10.85
2023-04-14T19:01:46.398Z,10.79
2023-04-14T19:04:13.421Z,10.74
2023-04-14T19:06:40.626Z,10.72
2023-04-14T19:09:07.424Z,10.71
2023-04-14T19:11:36.155Z,10.65
2023-04-14T19:14:04.790Z,10.65
2023-04-14T19:16:31.596Z,10.66
2023-04-14T19:18:59.380Z,10.64
2023-04-14T19:21:26.339Z,10.62
2023-04-14T19:23:54.683Z,10.61
2023-04-14T19:26:21.510Z,10.59
2023-04-14T19:28:48.308Z,10.62
2023-04-14T19:31:15.966Z,10.60
2023-04-14T19:33:42.671Z,10.57
2023-04-14T19:36:14.314Z,10.49
2023-04-14T19:38:41.507Z,10.43
2023-04-14T19:41:11.513Z,10.45
2023-04-14T19:43:38.435Z,10.35
2023-04-14T19:46:05.464Z,10.30
2023-04-14T19:48:35.320Z,10.24
2023-04-14T19:51:02.528Z,10.18
2023-04-14T19:53:29.249Z,10.12
2023-04-14T19:55:58.130Z,10.07
2023-04-14T19:58:26.973Z,10.04
2023-04-14T20:00:56.023Z,9.99
2023-04-14T20:03:24.843Z,9.96
2023-04-14T20:05:55.847Z,9.88
2023-04-14T20:08:26.532Z,9.87
2023-04-14T20:10:54.383Z,9.84
2023-04-14T20:13:22.674Z,9.80
2023-04-14T20:15:50.807Z,9.80
2023-04-14T20:18:18.168Z,9.74
2023-04-14T20:20:48.998Z,9.72
2023-04-14T20:23:16.195Z,9.71
2023-04-14T20:25:44.204Z,9.67
2023-04-14T20:28:11.069Z,9.63
2023-04-14T20:30:38.053Z,9.64
2023-04-14T20:33:06.413Z,9.63
2023-04-14T20:35:37.492Z,9.63
2023-04-14T20:38:04.774Z,9.61
2023-04-14T20:40:31.475Z,9.57
2023-04-14T20:42:58.592Z,9.56
2023-04-14T20:45:25.534Z,9.55
2023-04-14T20:47:52.519Z,9.55
2023-04-14T20:50:19.418Z,9.55
2023-04-14T20:52:46.741Z,9.47
2023-04-14T20:55:13.874Z,9.42
2023-04-14T20:57:42.095Z,9.34
2023-04-14T21:00:12.611Z,9.32
2023-04-14T21:02:39.612Z,9.25
2023-04-14T21:05:06.809Z,9.27
2023-04-14T21:07:35.590Z,9.25
2023-04-14T21:10:04.271Z,9.19
2023-04-14T21:12:36.018Z,9.13
2023-04-14T21:15:48.438Z,9.08
2023-04-14T21:17:52.113Z,9.04
2023-04-14T21:20:19.127Z,9.02
2023-04-14T21:22:46.098Z,8.96
2023-04-14T21:25:12.893Z,8.96
2023-04-14T21:27:39.778Z,8.92
2023-04-14T21:30:11.944Z,8.85
2023-04-14T21:32:39.589Z,8.87
2023-04-14T21:35:07.601Z,8.86
2023-04-14T21:37:34.451Z,8.87
2023-04-14T21:40:04.353Z,8.82
2023-04-14T21:42:31.626Z,8.81
2023-04-14T21:44:58.446Z,8.82
2023-04-14T21:47:25.258Z,8.71
2023-04-14T21:49:52.256Z,8.71
2023-04-14T21:52:19.460Z,8.66
2023-04-14T21:54:47.664Z,8.60
2023-04-14T21:57:14.472Z,8.52
2023-04-14T21:59:41.508Z,8.41
2023-04-14T22:02:08.284Z,8.37
2023-04-14T22:04:37.044Z,8.34
2023-04-14T22:07:05.433Z,8.38
2023-04-14T22:09:33.459Z,8.36
2023-04-14T22:12:00.645Z,8.30
2023-04-14T22:14:27.919Z,8.29
2023-04-14T22:16:55.255Z,8.23
2023-04-14T22:19:22.075Z,8.21
2023-04-14T22:21:48.955Z,8.11
2023-04-14T22:24:15.713Z,8.11
2023-04-14T22:26:42.519Z,8.07
2023-04-14T22:29:11.526Z,8.05
2023-04-14T22:31:38.483Z,8.00
2023-04-14T22:34:05.448Z,8.00
2023-04-14T22:36:32.411Z,8.02
2023-04-14T22:38:59.636Z,8.01
2023-04-14T22:41:26.509Z,8.01
2023-04-14T22:43:53.281Z,8.04
2023-04-14T22:46:20.023Z,8.06
2023-04-14T22:48:46.805Z,8.06
2023-04-14T22:51:13.564Z,8.04
2023-04-14T22:53:41.695Z,7.99
2023-04-14T22:56:08.808Z,8.03
2023-04-14T22:58:39.355Z,7.97
2023-04-14T23:01:21.387Z,7.93
2023-04-14T23:03:51.282Z,7.93
2023-04-14T23:06:21.530Z,7.87
2023-04-14T23:08:48.276Z,7.82
2023-04-14T23:11:15.405Z,7.81
2023-04-14T23:13:42.218Z,7.81
2023-04-14T23:16:09.327Z,7.78
2023-04-14T23:18:36.354Z,7.82
2023-04-14T23:21:03.740Z,7.80
2023-04-14T23:23:30.462Z,7.80
2023-04-14T23:25:57.792Z,7.80
2023-04-14T23:28:24.949Z,7.79
2023-04-14T23:30:52.078Z,7.81
2023-04-14T23:33:18.756Z,7.77
2023-04-14T23:35:45.510Z,7.78
2023-04-14T23:38:12.199Z,7.80
2023-04-14T23:40:38.904Z,7.75
2023-04-14T23:43:06.201Z,7.70
2023-04-14T23:45:37.300Z,7.64
2023-04-14T23:48:05.199Z,7.56
2023-04-14T23:50:59.533Z,7.48
2023-04-14T23:53:19.711Z,7.53
2023-04-14T23:55:46.886Z,7.47
2023-04-14T23:58:14.110Z,7.44
